Shrewton, United Kingdom
Current Conditions -  °F | °C
As of 11:50 PM on Sunday 25 Jan 2015 (Local Time) from EGDM Reporting Station
Overcast Overcast  
Wind Chill: 43°   Ceiling: 900
Heat Index: 48°   Visibility: 6mi
Dew Point: 45°   Wind: 12mph
Humidity: 87%   Direction: 240°WSW
Pressure: 30.3"   Gusts: NA
Location:  51.19°N, 1.9°W
Report Text: EGDM 252350Z AUTO 24010KT 9999 OVC009/// 09/07 Q1026
Loading
Personal Weather Stations






























Interactive Weather Map New forecast layout! Learn more

10-Day Weather Forecast

Advertisements
Track Severe Weather on mobile